sensor_id;sensor_type;location;lat;lon;timestamp;pressure;altitude;pressure_sealevel;temperature;humidity
9235;BME280;4652;42.716;23.218;2022-12-17T00:06:18;94709.00;;;3.67;100.00
9235;BME280;4652;42.716;23.218;2022-12-17T00:13:18;94694.28;;;3.65;100.00
9235;BME280;4652;42.716;23.218;2022-12-17T00:20:19;94711.97;;;3.76;100.00
9235;BME280;4652;42.716;23.218;2022-12-17T00:27:18;94725.31;;;3.76;100.00
9235;BME280;4652;42.716;23.218;2022-12-17T00:34:17;94715.69;;;4.23;100.00
9235;BME280;4652;42.716;23.218;2022-12-17T00:41:18;94713.72;;;4.40;100.00
9235;BME280;4652;42.716;23.218;2022-12-17T00:48:17;94697.41;;;4.37;100.00
9235;BME280;4652;42.716;23.218;2022-12-17T00:55:16;94714.97;;;4.64;100.00
9235;BME280;4652;42.716;23.218;2022-12-17T01:02:17;94708.41;;;4.72;100.00
9235;BME280;4652;42.716;23.218;2022-12-17T01:09:16;94724.13;;;4.73;100.00
9235;BME280;4652;42.716;23.218;2022-12-17T01:16:16;94722.28;;;4.74;100.00
9235;BME280;4652;42.716;23.218;2022-12-17T01:23:17;94733.03;;;4.89;100.00
9235;BME280;4652;42.716;23.218;2022-12-17T01:30:24;94699.97;;;4.53;100.00
9235;BME280;4652;42.716;23.218;2022-12-17T01:37:24;94723.81;;;4.70;100.00
9235;BME280;4652;42.716;23.218;2022-12-17T01:44:55;94712.34;;;4.69;100.00
9235;BME280;4652;42.716;23.218;2022-12-17T01:51:56;94681.09;;;4.60;100.00
9235;BME280;4652;42.716;23.218;2022-12-17T01:58:57;94702.94;;;4.57;100.00
9235;BME280;4652;42.716;23.218;2022-12-17T02:08:13;94673.44;;;4.37;100.00
9235;BME280;4652;42.716;23.218;2022-12-17T02:15:16;94703.13;;;4.50;100.00
9235;BME280;4652;42.716;23.218;2022-12-17T02:22:23;94691.47;;;4.56;100.00
9235;BME280;4652;42.716;23.218;2022-12-17T02:29:30;94690.72;;;4.61;100.00
9235;BME280;4652;42.716;23.218;2022-12-17T02:36:33;94702.75;;;5.05;100.00
9235;BME280;4652;42.716;23.218;2022-12-17T02:43:33;94693.28;;;5.29;100.00
9235;BME280;4652;42.716;23.218;2022-12-17T02:50:35;94627.28;;;5.20;100.00
9235;BME280;4652;42.716;23.218;2022-12-17T02:57:34;94638.94;;;5.61;100.00
9235;BME280;4652;42.716;23.218;2022-12-17T03:04:34;94651.81;;;5.79;100.00
9235;BME280;4652;42.716;23.218;2022-12-17T03:11:35;94641.59;;;5.56;100.00
9235;BME280;4652;42.716;23.218;2022-12-17T03:18:34;94636.75;;;5.53;100.00
9235;BME280;4652;42.716;23.218;2022-12-17T03:25:33;94653.81;;;5.42;100.00
9235;BME280;4652;42.716;23.218;2022-12-17T03:32:34;94636.72;;;5.32;100.00
9235;BME280;4652;42.716;23.218;2022-12-17T03:39:33;94642.06;;;5.32;100.00
9235;BME280;4652;42.716;23.218;2022-12-17T03:46:33;94648.09;;;5.13;100.00
9235;BME280;4652;42.716;23.218;2022-12-17T03:53:34;94640.69;;;4.78;100.00
9235;BME280;4652;42.716;23.218;2022-12-17T04:00:34;94634.84;;;4.86;100.00
9235;BME280;4652;42.716;23.218;2022-12-17T04:07:53;94638.75;;;4.68;100.00
9235;BME280;4652;42.716;23.218;2022-12-17T04:14:54;94639.09;;;4.77;100.00
9235;BME280;4652;42.716;23.218;2022-12-17T04:21:53;94640.75;;;4.51;100.00
9235;BME280;4652;42.716;23.218;2022-12-17T04:28:53;94642.56;;;4.41;100.00
9235;BME280;4652;42.716;23.218;2022-12-17T04:35:54;94637.31;;;4.56;100.00
9235;BME280;4652;42.716;23.218;2022-12-17T04:42:53;94652.03;;;4.58;100.00
9235;BME280;4652;42.716;23.218;2022-12-17T04:49:53;94675.22;;;4.58;100.00
9235;BME280;4652;42.716;23.218;2022-12-17T04:57:05;94695.31;;;5.12;100.00
9235;BME280;4652;42.716;23.218;2022-12-17T05:04:05;94691.19;;;5.37;100.00
9235;BME280;4652;42.716;23.218;2022-12-17T05:11:04;94710.00;;;5.62;100.00
9235;BME280;4652;42.716;23.218;2022-12-17T05:18:06;94699.13;;;5.83;100.00
9235;BME280;4652;42.716;23.218;2022-12-17T05:25:17;94694.44;;;6.41;100.00
9235;BME280;4652;42.716;23.218;2022-12-17T05:32:16;94692.78;;;7.36;100.00
9235;BME280;4652;42.716;23.218;2022-12-17T05:39:25;94721.72;;;7.39;100.00
9235;BME280;4652;42.716;23.218;2022-12-17T05:46:25;94716.38;;;7.24;100.00
9235;BME280;4652;42.716;23.218;2022-12-17T05:53:24;94733.25;;;7.24;100.00
9235;BME280;4652;42.716;23.218;2022-12-17T06:00:25;94722.53;;;7.24;100.00
9235;BME280;4652;42.716;23.218;2022-12-17T06:07:25;94732.72;;;7.17;100.00
9235;BME280;4652;42.716;23.218;2022-12-17T06:14:24;94746.88;;;7.38;100.00
9235;BME280;4652;42.716;23.218;2022-12-17T06:21:25;94753.84;;;7.24;100.00
9235;BME280;4652;42.716;23.218;2022-12-17T06:28:24;94774.47;;;7.53;100.00
9235;BME280;4652;42.716;23.218;2022-12-17T06:35:23;94750.75;;;7.91;100.00
9235;BME280;4652;42.716;23.218;2022-12-17T06:42:23;94765.50;;;8.57;100.00
9235;BME280;4652;42.716;23.218;2022-12-17T06:49:22;94707.13;;;9.07;100.00
9235;BME280;4652;42.716;23.218;2022-12-17T06:56:22;94787.94;;;10.86;100.00
9235;BME280;4652;42.716;23.218;2022-12-17T07:03:23;94810.19;;;11.10;100.00
9235;BME280;4652;42.716;23.218;2022-12-17T07:10:22;94780.13;;;11.03;100.00
9235;BME280;4652;42.716;23.218;2022-12-17T07:17:21;94803.00;;;11.57;100.00
9235;BME280;4652;42.716;23.218;2022-12-17T07:24:22;94736.53;;;11.93;100.00
9235;BME280;4652;42.716;23.218;2022-12-17T07:31:21;94704.16;;;12.20;100.00
9235;BME280;4652;42.716;23.218;2022-12-17T07:38:26;94695.13;;;12.38;100.00
9235;BME280;4652;42.716;23.218;2022-12-17T07:45:27;94652.44;;;12.63;100.00
9235;BME280;4652;42.716;23.218;2022-12-17T07:52:27;94678.94;;;12.96;100.00
9235;BME280;4652;42.716;23.218;2022-12-17T07:59:26;94672.06;;;13.66;100.00
9235;BME280;4652;42.716;23.218;2022-12-17T08:08:09;94640.09;;;14.24;100.00
9235;BME280;4652;42.716;23.218;2022-12-17T08:15:09;94659.75;;;14.38;100.00
9235;BME280;4652;42.716;23.218;2022-12-17T08:22:09;94735.09;;;14.36;100.00
9235;BME280;4652;42.716;23.218;2022-12-17T08:29:10;94703.78;;;14.13;100.00
9235;BME280;4652;42.716;23.218;2022-12-17T08:36:10;94714.13;;;14.20;100.00
9235;BME280;4652;42.716;23.218;2022-12-17T08:43:09;94754.84;;;15.02;100.00
9235;BME280;4652;42.716;23.218;2022-12-17T08:50:10;94797.88;;;14.95;100.00
9235;BME280;4652;42.716;23.218;2022-12-17T08:57:09;94826.50;;;14.31;100.00
9235;BME280;4652;42.716;23.218;2022-12-17T09:04:08;94827.19;;;14.05;100.00
9235;BME280;4652;42.716;23.218;2022-12-17T09:11:09;94836.78;;;13.89;100.00
9235;BME280;4652;42.716;23.218;2022-12-17T09:18:08;94833.53;;;14.01;100.00
9235;BME280;4652;42.716;23.218;2022-12-17T09:25:07;94846.84;;;13.89;100.00
9235;BME280;4652;42.716;23.218;2022-12-17T09:32:08;94892.94;;;13.62;100.00
9235;BME280;4652;42.716;23.218;2022-12-17T09:39:07;94895.16;;;13.24;100.00
9235;BME280;4652;42.716;23.218;2022-12-17T09:46:16;94887.19;;;12.78;100.00
9235;BME280;4652;42.716;23.218;2022-12-17T09:53:27;94879.41;;;12.03;100.00
9235;BME280;4652;42.716;23.218;2022-12-17T10:00:27;94822.09;;;11.79;100.00
9235;BME280;4652;42.716;23.218;2022-12-17T10:07:32;94848.84;;;11.75;100.00
9235;BME280;4652;42.716;23.218;2022-12-17T10:14:33;94876.78;;;11.47;100.00
9235;BME280;4652;42.716;23.218;2022-12-17T10:21:33;94908.25;;;11.14;100.00
9235;BME280;4652;42.716;23.218;2022-12-17T10:28:34;94916.09;;;10.92;100.00
9235;BME280;4652;42.716;23.218;2022-12-17T10:35:36;94917.16;;;10.91;100.00
9235;BME280;4652;42.716;23.218;2022-12-17T10:42:37;94901.88;;;10.87;100.00
9235;BME280;4652;42.716;23.218;2022-12-17T10:49:56;94880.50;;;11.14;100.00
9235;BME280;4652;42.716;23.218;2022-12-17T10:57:00;94797.72;;;11.33;100.00
9235;BME280;4652;42.716;23.218;2022-12-17T11:04:00;94828.75;;;12.27;100.00
9235;BME280;4652;42.716;23.218;2022-12-17T11:11:09;94799.34;;;12.40;100.00
9235;BME280;4652;42.716;23.218;2022-12-17T11:18:16;94830.56;;;12.73;100.00
9235;BME280;4652;42.716;23.218;2022-12-17T11:25:28;94822.09;;;12.88;100.00
9235;BME280;4652;42.716;23.218;2022-12-17T11:32:57;94840.72;;;13.03;100.00
9235;BME280;4652;42.716;23.218;2022-12-17T11:40:06;94846.81;;;12.81;100.00
9235;BME280;4652;42.716;23.218;2022-12-17T11:47:13;94866.28;;;12.43;100.00
9235;BME280;4652;42.716;23.218;2022-12-17T11:54:21;94885.88;;;12.75;100.00
9235;BME280;4652;42.716;23.218;2022-12-17T12:01:30;94874.97;;;12.94;100.00
9235;BME280;4652;42.716;23.218;2022-12-17T12:08:37;94880.13;;;13.31;100.00
9235;BME280;4652;42.716;23.218;2022-12-17T12:15:54;94873.00;;;13.35;100.00
9235;BME280;4652;42.716;23.218;2022-12-17T12:23:05;94880.97;;;13.76;100.00
9235;BME280;4652;42.716;23.218;2022-12-17T12:30:12;94868.38;;;13.49;100.00
9235;BME280;4652;42.716;23.218;2022-12-17T12:37:15;94882.34;;;13.29;100.00
9235;BME280;4652;42.716;23.218;2022-12-17T12:44:33;94875.19;;;13.11;100.00
9235;BME280;4652;42.716;23.218;2022-12-17T12:51:37;94884.38;;;13.10;100.00
9235;BME280;4652;42.716;23.218;2022-12-17T12:58:45;94866.94;;;13.03;100.00
9235;BME280;4652;42.716;23.218;2022-12-17T13:05:46;94868.66;;;12.85;100.00
9235;BME280;4652;42.716;23.218;2022-12-17T13:12:30;94883.88;;;12.81;100.00
9235;BME280;4652;42.716;23.218;2022-12-17T13:19:30;94894.00;;;12.75;100.00
9235;BME280;4652;42.716;23.218;2022-12-17T13:26:18;94875.97;;;12.44;100.00
9235;BME280;4652;42.716;23.218;2022-12-17T13:33:19;94908.97;;;12.41;100.00
9235;BME280;4652;42.716;23.218;2022-12-17T13:40:43;94905.97;;;12.42;100.00
9235;BME280;4652;42.716;23.218;2022-12-17T13:47:33;94928.78;;;12.50;100.00
9235;BME280;4652;42.716;23.218;2022-12-17T13:54:18;94923.78;;;12.57;100.00
9235;BME280;4652;42.716;23.218;2022-12-17T14:08:05;94934.31;;;12.58;100.00
9235;BME280;4652;42.716;23.218;2022-12-17T14:14:50;94949.84;;;12.20;100.00
9235;BME280;4652;42.716;23.218;2022-12-17T14:21:35;94938.22;;;11.88;100.00
9235;BME280;4652;42.716;23.218;2022-12-17T14:28:23;94945.50;;;11.68;100.00
9235;BME280;4652;42.716;23.218;2022-12-17T14:35:23;94945.34;;;11.41;100.00
9235;BME280;4652;42.716;23.218;2022-12-17T14:42:13;94960.44;;;11.24;100.00
9235;BME280;4652;42.716;23.218;2022-12-17T14:49:30;94980.22;;;10.90;100.00
9235;BME280;4652;42.716;23.218;2022-12-17T14:56:23;94994.91;;;10.79;100.00
9235;BME280;4652;42.716;23.218;2022-12-17T15:03:07;95003.75;;;10.56;100.00
9235;BME280;4652;42.716;23.218;2022-12-17T15:09:54;94996.25;;;10.24;100.00
9235;BME280;4652;42.716;23.218;2022-12-17T15:16:37;95016.09;;;9.89;100.00
9235;BME280;4652;42.716;23.218;2022-12-17T15:23:21;95027.56;;;9.66;100.00
9235;BME280;4652;42.716;23.218;2022-12-17T15:30:11;95048.44;;;9.25;100.00
9235;BME280;4652;42.716;23.218;2022-12-17T15:36:55;95056.28;;;9.17;100.00
9235;BME280;4652;42.716;23.218;2022-12-17T15:43:37;95049.38;;;8.96;100.00
9235;BME280;4652;42.716;23.218;2022-12-17T15:50:22;95058.81;;;8.78;100.00
9235;BME280;4652;42.716;23.218;2022-12-17T15:57:08;95051.06;;;8.46;100.00
9235;BME280;4652;42.716;23.218;2022-12-17T16:03:53;95073.09;;;8.33;100.00
9235;BME280;4652;42.716;23.218;2022-12-17T16:10:38;95077.06;;;8.05;100.00
9235;BME280;4652;42.716;23.218;2022-12-17T16:17:29;95098.28;;;8.17;100.00
9235;BME280;4652;42.716;23.218;2022-12-17T16:24:12;95088.31;;;7.97;100.00
9235;BME280;4652;42.716;23.218;2022-12-17T16:31:04;95109.50;;;8.04;100.00
9235;BME280;4652;42.716;23.218;2022-12-17T16:37:48;95132.28;;;7.96;100.00
9235;BME280;4652;42.716;23.218;2022-12-17T16:44:45;95137.91;;;7.95;100.00
9235;BME280;4652;42.716;23.218;2022-12-17T16:51:57;95146.44;;;7.82;100.00
9235;BME280;4652;42.716;23.218;2022-12-17T16:58:39;95135.91;;;7.60;100.00
9235;BME280;4652;42.716;23.218;2022-12-17T17:05:22;95147.75;;;7.69;100.00
9235;BME280;4652;42.716;23.218;2022-12-17T17:12:30;95153.91;;;7.64;100.00
9235;BME280;4652;42.716;23.218;2022-12-17T17:19:14;95163.91;;;7.84;100.00
9235;BME280;4652;42.716;23.218;2022-12-17T17:26:10;95186.13;;;7.80;100.00
9235;BME280;4652;42.716;23.218;2022-12-17T17:32:54;95185.56;;;7.73;100.00
9235;BME280;4652;42.716;23.218;2022-12-17T17:39:36;95188.16;;;7.57;100.00
9235;BME280;4652;42.716;23.218;2022-12-17T17:46:19;95208.97;;;7.40;100.00
9235;BME280;4652;42.716;23.218;2022-12-17T17:53:21;95214.38;;;7.45;100.00
9235;BME280;4652;42.716;23.218;2022-12-17T18:00:10;95231.47;;;7.34;100.00
9235;BME280;4652;42.716;23.218;2022-12-17T18:06:53;95232.69;;;7.22;100.00
9235;BME280;4652;42.716;23.218;2022-12-17T18:13:38;95252.91;;;7.39;100.00
9235;BME280;4652;42.716;23.218;2022-12-17T18:20:37;95270.22;;;7.27;100.00
9235;BME280;4652;42.716;23.218;2022-12-17T18:27:33;95283.06;;;7.61;100.00
9235;BME280;4652;42.716;23.218;2022-12-17T18:34:18;95308.50;;;8.06;100.00
9235;BME280;4652;42.716;23.218;2022-12-17T18:41:05;95328.97;;;8.22;100.00
9235;BME280;4652;42.716;23.218;2022-12-17T18:48:07;95328.97;;;8.22;100.00
9235;BME280;4652;42.716;23.218;2022-12-17T18:54:50;95359.56;;;8.26;100.00
9235;BME280;4652;42.716;23.218;2022-12-17T19:01:34;95368.69;;;8.25;100.00
9235;BME280;4652;42.716;23.218;2022-12-17T19:08:16;95370.06;;;8.27;100.00
9235;BME280;4652;42.716;23.218;2022-12-17T19:15:00;95385.41;;;8.37;100.00
9235;BME280;4652;42.716;23.218;2022-12-17T19:21:41;95389.16;;;8.36;100.00
9235;BME280;4652;42.716;23.218;2022-12-17T19:28:23;95400.47;;;8.43;100.00
9235;BME280;4652;42.716;23.218;2022-12-17T19:35:07;95415.50;;;8.44;100.00
9235;BME280;4652;42.716;23.218;2022-12-17T19:41:49;95422.75;;;8.44;100.00
9235;BME280;4652;42.716;23.218;2022-12-17T19:48:32;95433.47;;;8.44;100.00
9235;BME280;4652;42.716;23.218;2022-12-17T19:55:17;95429.16;;;8.38;100.00
9235;BME280;4652;42.716;23.218;2022-12-17T20:08:06;95445.31;;;8.48;100.00
9235;BME280;4652;42.716;23.218;2022-12-17T20:14:48;95449.84;;;8.42;100.00
9235;BME280;4652;42.716;23.218;2022-12-17T20:21:30;95456.78;;;8.38;100.00
9235;BME280;4652;42.716;23.218;2022-12-17T20:28:13;95470.56;;;8.57;100.00
9235;BME280;4652;42.716;23.218;2022-12-17T20:34:57;95468.72;;;8.57;100.00
9235;BME280;4652;42.716;23.218;2022-12-17T20:41:39;95478.94;;;8.60;100.00
9235;BME280;4652;42.716;23.218;2022-12-17T20:48:23;95490.28;;;8.72;100.00
9235;BME280;4652;42.716;23.218;2022-12-17T20:55:05;95498.88;;;8.74;100.00
9235;BME280;4652;42.716;23.218;2022-12-17T21:01:48;95504.72;;;8.61;100.00
9235;BME280;4652;42.716;23.218;2022-12-17T21:08:32;95503.81;;;8.51;100.00
9235;BME280;4652;42.716;23.218;2022-12-17T21:15:14;95515.38;;;8.51;100.00
9235;BME280;4652;42.716;23.218;2022-12-17T21:21:56;95504.06;;;8.44;100.00
9235;BME280;4652;42.716;23.218;2022-12-17T21:28:40;95520.97;;;8.45;100.00
9235;BME280;4652;42.716;23.218;2022-12-17T21:35:24;95525.44;;;8.34;100.00
9235;BME280;4652;42.716;23.218;2022-12-17T21:42:07;95529.97;;;8.28;100.00
9235;BME280;4652;42.716;23.218;2022-12-17T21:49:08;95526.94;;;8.20;100.00
9235;BME280;4652;42.716;23.218;2022-12-17T21:55:50;95543.56;;;8.17;100.00
9235;BME280;4652;42.716;23.218;2022-12-17T22:02:35;95543.72;;;8.05;100.00
9235;BME280;4652;42.716;23.218;2022-12-17T22:09:18;95546.06;;;7.97;100.00
9235;BME280;4652;42.716;23.218;2022-12-17T22:16:04;95527.84;;;7.72;100.00
9235;BME280;4652;42.716;23.218;2022-12-17T22:22:46;95532.81;;;7.58;100.00
9235;BME280;4652;42.716;23.218;2022-12-17T22:29:30;95536.75;;;7.51;100.00
9235;BME280;4652;42.716;23.218;2022-12-17T22:36:30;95507.19;;;7.19;100.00
9235;BME280;4652;42.716;23.218;2022-12-17T22:43:13;95551.47;;;7.27;100.00
9235;BME280;4652;42.716;23.218;2022-12-17T22:50:14;95562.44;;;7.25;100.00
9235;BME280;4652;42.716;23.218;2022-12-17T22:56:57;95541.91;;;6.87;100.00
9235;BME280;4652;42.716;23.218;2022-12-17T23:03:38;95572.22;;;6.93;100.00
9235;BME280;4652;42.716;23.218;2022-12-17T23:10:23;95580.44;;;6.86;100.00
9235;BME280;4652;42.716;23.218;2022-12-17T23:17:05;95593.09;;;6.74;100.00
9235;BME280;4652;42.716;23.218;2022-12-17T23:23:47;95609.53;;;6.83;100.00
9235;BME280;4652;42.716;23.218;2022-12-17T23:30:30;95613.31;;;6.82;100.00
9235;BME280;4652;42.716;23.218;2022-12-17T23:37:13;95623.69;;;6.62;100.00
9235;BME280;4652;42.716;23.218;2022-12-17T23:43:55;95642.91;;;6.42;100.00
9235;BME280;4652;42.716;23.218;2022-12-17T23:50:39;95646.88;;;6.39;100.00
9235;BME280;4652;42.716;23.218;2022-12-17T23:57:20;95653.66;;;6.14;100.00
